Time;durP1;ratioP1;P1;durP2;ratioP2;P2;SDS_P1;SDS_P2;PMS_P1;PMS_P2;Temp;Humidity;BMP_temperature;BMP_pressure;BME280_temperature;BME280_humidity;BME280_pressure;Samples;Min_cycle;Max_cycle;Signal;HPM_P1;HPM_P2
2023/07/03 00:00:26;;;;;;;12.63;3.92;;;;;;;;;;5093048;28;20504;-76
2023/07/03 00:02:52;;;;;;;14.43;4.53;;;;;;;;;;5074600;28;20465;-77
2023/07/03 00:05:19;;;;;;;18.83;4.18;;;;;;;;;;5074845;28;20051;-77
2023/07/03 00:07:48;;;;;;;13.45;3.70;;;;;;;;;;5074084;28;20044;-77
2023/07/03 00:10:14;;;;;;;15.25;4.25;;;;;;;;;;5091525;28;20051;-76
2023/07/03 00:12:40;;;;;;;16.00;4.07;;;;;;;;;;5092516;28;20052;-77
2023/07/03 00:15:07;;;;;;;12.63;4.05;;;;;;;;;;5091297;28;20040;-75
2023/07/03 00:17:33;;;;;;;13.70;4.30;;;;;;;;;;5091110;28;20040;-76
2023/07/03 00:19:59;;;;;;;11.70;3.75;;;;;;;;;;5090956;28;20051;-76
2023/07/03 00:22:25;;;;;;;10.75;3.83;;;;;;;;;;5091687;28;20126;-76
2023/07/03 00:24:51;;;;;;;13.57;3.75;;;;;;;;;;5090944;28;20036;-76
2023/07/03 00:27:18;;;;;;;11.63;3.17;;;;;;;;;;5091563;28;20058;-75
2023/07/03 00:29:44;;;;;;;15.32;3.40;;;;;;;;;;5091197;28;20131;-75
2023/07/03 00:32:10;;;;;;;10.65;3.40;;;;;;;;;;5074695;28;20501;-75
2023/07/03 00:34:36;;;;;;;14.25;3.38;;;;;;;;;;5091116;28;20050;-76
2023/07/03 00:37:02;;;;;;;12.27;3.40;;;;;;;;;;5090843;28;20040;-76
2023/07/03 00:39:28;;;;;;;16.05;3.63;;;;;;;;;;5074038;28;20070;-75
2023/07/03 00:41:55;;;;;;;10.63;3.22;;;;;;;;;;5090408;28;20122;-75
2023/07/03 00:44:21;;;;;;;10.57;2.95;;;;;;;;;;5091174;28;20048;-75
2023/07/03 00:46:51;;;;;;;13.25;3.30;;;;;;;;;;5090423;28;20039;-75
2023/07/03 00:49:17;;;;;;;10.23;3.20;;;;;;;;;;5091087;28;20119;-75
2023/07/03 00:51:45;;;;;;;12.38;2.88;;;;;;;;;;5090736;28;20437;-75
2023/07/03 00:54:11;;;;;;;13.52;3.17;;;;;;;;;;5090550;28;20040;-74
2023/07/03 00:56:37;;;;;;;13.77;3.28;;;;;;;;;;5090511;28;20083;-74
2023/07/03 00:59:04;;;;;;;16.83;3.58;;;;;;;;;;5090230;28;20119;-74
2023/07/03 01:01:37;;;;;;;11.07;2.80;;;;;;;;;;5074116;28;20051;-74
2023/07/03 01:04:24;;;;;;;12.68;3.13;;;;;;;;;;5090020;28;20071;-74
2023/07/03 01:06:57;;;;;;;12.50;2.90;;;;;;;;;;5090341;28;20044;-74
2023/07/03 01:09:25;;;;;;;13.43;3.17;;;;;;;;;;5092035;28;20067;-75
2023/07/03 01:11:51;;;;;;;13.57;3.15;;;;;;;;;;5090422;28;20082;-75
2023/07/03 01:14:19;;;;;;;8.15;2.90;;;;;;;;;;5090768;28;20036;-75
2023/07/03 01:16:46;;;;;;;13.00;2.90;;;;;;;;;;5090652;28;20043;-73
2023/07/03 01:19:15;;;;;;;11.95;3.00;;;;;;;;;;5090261;28;20393;-74
2023/07/03 01:21:59;;;;;;;13.90;3.38;;;;;;;;;;5091988;28;20036;-74
2023/07/03 01:24:47;;;;;;;11.50;3.08;;;;;;;;;;5091653;28;20039;-76
2023/07/03 01:27:15;;;;;;;12.15;3.13;;;;;;;;;;5090261;28;20075;-76
2023/07/03 01:29:41;;;;;;;12.07;2.85;;;;;;;;;;5090538;28;20039;-75
2023/07/03 01:32:09;;;;;;;12.05;3.17;;;;;;;;;;5073393;28;20048;-74
2023/07/03 01:34:37;;;;;;;12.10;2.83;;;;;;;;;;5090631;28;20047;-76
2023/07/03 01:37:04;;;;;;;14.70;3.30;;;;;;;;;;5090239;28;20447;-74
2023/07/03 01:39:30;;;;;;;11.25;2.55;;;;;;;;;;5090605;28;20527;-74
2023/07/03 01:41:57;;;;;;;12.50;2.80;;;;;;;;;;5090461;28;20405;-77
2023/07/03 01:44:23;;;;;;;11.68;2.67;;;;;;;;;;5091532;28;20509;-76
2023/07/03 01:46:49;;;;;;;12.85;2.65;;;;;;;;;;5090250;28;20040;-74
2023/07/03 01:49:16;;;;;;;9.57;2.72;;;;;;;;;;5090004;28;20044;-73
2023/07/03 01:51:52;;;;;;;12.70;2.85;;;;;;;;;;5073884;28;20535;-75
2023/07/03 01:54:26;;;;;;;13.05;2.80;;;;;;;;;;5077883;28;20396;-73
2023/07/03 01:56:53;;;;;;;15.38;3.22;;;;;;;;;;5089700;28;20047;-74
2023/07/03 01:59:21;;;;;;;13.40;3.40;;;;;;;;;;5071960;28;20048;-75
2023/07/03 02:02:02;;;;;;;11.35;2.65;;;;;;;;;;5086985;28;20048;-75
2023/07/03 02:04:41;;;;;;;11.52;3.13;;;;;;;;;;5091351;28;20047;-74
2023/07/03 02:07:08;;;;;;;10.00;2.42;;;;;;;;;;5089793;28;20416;-71
2023/07/03 02:09:34;;;;;;;10.82;2.35;;;;;;;;;;5093482;28;20043;-75
2023/07/03 02:12:00;;;;;;;10.02;2.42;;;;;;;;;;5093790;28;20543;-73
2023/07/03 02:14:26;;;;;;;7.68;2.00;;;;;;;;;;5093492;28;20051;-74
2023/07/03 02:16:53;;;;;;;6.28;1.50;;;;;;;;;;5093781;28;20044;-74
2023/07/03 02:19:20;;;;;;;8.25;2.05;;;;;;;;;;5093451;28;20042;-74
2023/07/03 02:21:47;;;;;;;8.98;1.90;;;;;;;;;;5093425;28;20036;-73
2023/07/03 02:24:13;;;;;;;7.68;1.98;;;;;;;;;;5093168;28;20048;-74
2023/07/03 02:26:41;;;;;;;7.75;2.15;;;;;;;;;;5094478;28;20451;-73
2023/07/03 02:29:07;;;;;;;6.97;1.90;;;;;;;;;;5093406;28;20126;-74
2023/07/03 02:31:33;;;;;;;6.55;2.30;;;;;;;;;;5093370;28;20056;-78
2023/07/03 02:33:59;;;;;;;6.22;1.73;;;;;;;;;;5059894;28;20402;-76
2023/07/03 02:36:29;;;;;;;6.78;1.80;;;;;;;;;;5094189;28;20055;-75
2023/07/03 02:38:55;;;;;;;7.85;1.50;;;;;;;;;;5093614;28;20136;-76
2023/07/03 02:41:22;;;;;;;8.13;1.63;;;;;;;;;;5076048;28;20040;-76
2023/07/03 02:43:49;;;;;;;7.95;2.00;;;;;;;;;;5094383;28;20039;-76
2023/07/03 02:46:15;;;;;;;9.25;1.80;;;;;;;;;;5092889;28;20519;-75
2023/07/03 02:48:41;;;;;;;7.65;1.77;;;;;;;;;;5092884;28;20048;-76
2023/07/03 02:51:07;;;;;;;11.00;1.92;;;;;;;;;;5092366;28;20048;-76
2023/07/03 02:53:33;;;;;;;6.05;1.70;;;;;;;;;;5094368;28;20047;-76
2023/07/03 02:55:59;;;;;;;8.38;1.80;;;;;;;;;;5092828;28;20089;-75
2023/07/03 02:58:26;;;;;;;7.32;2.13;;;;;;;;;;5092938;28;20467;-74
2023/07/03 03:00:53;;;;;;;8.23;2.00;;;;;;;;;;5092658;28;20115;-74
2023/07/03 03:03:19;;;;;;;9.52;1.77;;;;;;;;;;5092812;28;20032;-74
2023/07/03 03:05:45;;;;;;;5.85;1.40;;;;;;;;;;5092515;28;20491;-76
2023/07/03 03:08:11;;;;;;;7.10;2.20;;;;;;;;;;5092322;28;20040;-76
2023/07/03 03:10:38;;;;;;;7.40;1.77;;;;;;;;;;5092640;28;20047;-78
2023/07/03 03:13:04;;;;;;;11.35;1.90;;;;;;;;;;5092071;28;20050;-76
2023/07/03 03:15:34;;;;;;;9.60;1.92;;;;;;;;;;5093211;28;20119;-76
2023/07/03 03:18:01;;;;;;;9.90;1.60;;;;;;;;;;5075415;28;20039;-76
2023/07/03 03:20:27;;;;;;;6.72;1.65;;;;;;;;;;5093321;28;20036;-75
2023/07/03 03:22:53;;;;;;;8.90;1.80;;;;;;;;;;5092376;28;20040;-74
2023/07/03 03:25:19;;;;;;;8.82;1.67;;;;;;;;;;5091897;28;20044;-76
2023/07/03 03:27:45;;;;;;;9.55;2.08;;;;;;;;;;5091986;28;20040;-76
2023/07/03 03:30:12;;;;;;;9.07;1.70;;;;;;;;;;5092242;28;20500;-76
2023/07/03 03:32:38;;;;;;;12.52;1.85;;;;;;;;;;5092088;28;20119;-76
2023/07/03 03:35:04;;;;;;;6.35;1.85;;;;;;;;;;5092382;28;20040;-76
2023/07/03 03:37:30;;;;;;;7.68;1.60;;;;;;;;;;5091838;28;20077;-75
2023/07/03 03:39:56;;;;;;;8.23;2.20;;;;;;;;;;5091936;28;20043;-76
2023/07/03 03:42:22;;;;;;;9.32;1.70;;;;;;;;;;5091556;28;20051;-76
2023/07/03 03:44:48;;;;;;;9.20;1.83;;;;;;;;;;5093160;28;20051;-76
2023/07/03 03:47:14;;;;;;;9.35;1.60;;;;;;;;;;5091612;28;20552;-76
2023/07/03 03:49:40;;;;;;;10.32;2.00;;;;;;;;;;5093158;28;20078;-76
2023/07/03 03:52:07;;;;;;;9.98;1.90;;;;;;;;;;5091942;28;20542;-76
2023/07/03 03:54:33;;;;;;;12.13;1.98;;;;;;;;;;5092237;28;20036;-75
2023/07/03 03:56:59;;;;;;;8.90;1.67;;;;;;;;;;5092406;28;20105;-74
2023/07/03 03:59:25;;;;;;;6.57;1.63;;;;;;;;;;5091427;28;20040;-75
2023/07/03 04:01:52;;;;;;;14.95;2.13;;;;;;;;;;5088688;28;20073;-76
2023/07/03 04:04:18;;;;;;;8.98;1.98;;;;;;;;;;5091787;28;20039;-77
2023/07/03 04:06:44;;;;;;;7.07;1.90;;;;;;;;;;5073740;28;20424;-76
2023/07/03 04:09:10;;;;;;;9.27;1.83;;;;;;;;;;5090764;28;20051;-76
2023/07/03 04:11:36;;;;;;;12.13;2.58;;;;;;;;;;5091443;28;20127;-77
2023/07/03 04:14:03;;;;;;;9.57;1.50;;;;;;;;;;5091547;28;20071;-77
2023/07/03 04:16:30;;;;;;;7.70;1.73;;;;;;;;;;5090552;28;20040;-76
2023/07/03 04:18:56;;;;;;;5.82;1.70;;;;;;;;;;5091415;28;20097;-77
2023/07/03 04:21:22;;;;;;;11.75;1.60;;;;;;;;;;5073826;28;20063;-77
2023/07/03 04:23:48;;;;;;;7.88;1.90;;;;;;;;;;5074601;28;20115;-77
2023/07/03 04:26:15;;;;;;;8.43;1.88;;;;;;;;;;5073669;28;20048;-77
2023/07/03 04:28:41;;;;;;;7.10;1.63;;;;;;;;;;5090977;28;20122;-77
2023/07/03 04:31:08;;;;;;;6.97;1.75;;;;;;;;;;5091419;28;20457;-77
2023/07/03 04:33:34;;;;;;;10.95;2.13;;;;;;;;;;5090579;28;20075;-77
2023/07/03 04:36:00;;;;;;;7.10;1.70;;;;;;;;;;5091074;28;20044;-76
2023/07/03 04:38:26;;;;;;;9.50;1.67;;;;;;;;;;5090644;28;20055;-78
2023/07/03 04:40:53;;;;;;;9.35;1.65;;;;;;;;;;5092390;28;20058;-80
2023/07/03 04:43:20;;;;;;;8.02;1.90;;;;;;;;;;5090727;28;20050;-77
2023/07/03 04:45:47;;;;;;;9.45;2.22;;;;;;;;;;5074065;28;20035;-76
2023/07/03 04:48:14;;;;;;;7.80;2.22;;;;;;;;;;5090476;28;20035;-78
2023/07/03 04:50:40;;;;;;;7.57;1.63;;;;;;;;;;5073916;28;20043;-75
2023/07/03 04:53:06;;;;;;;10.55;1.80;;;;;;;;;;5074173;28;20079;-75
2023/07/03 04:55:33;;;;;;;8.27;1.73;;;;;;;;;;5090664;28;20489;-76
2023/07/03 04:57:59;;;;;;;10.13;2.00;;;;;;;;;;5090547;28;20059;-75
2023/07/03 05:00:27;;;;;;;9.07;1.85;;;;;;;;;;5072080;28;20055;-78
2023/07/03 05:02:56;;;;;;;9.70;1.70;;;;;;;;;;5091030;28;20040;-75
2023/07/03 05:05:22;;;;;;;7.28;1.80;;;;;;;;;;5091643;28;20044;-75
2023/07/03 05:07:49;;;;;;;8.45;1.90;;;;;;;;;;5090806;28;20467;-76
2023/07/03 05:10:17;;;;;;;11.90;2.05;;;;;;;;;;5090925;28;20131;-77
2023/07/03 05:12:43;;;;;;;11.77;1.90;;;;;;;;;;5090957;28;20043;-78
2023/07/03 05:15:11;;;;;;;11.00;2.15;;;;;;;;;;5092506;28;20040;-79
2023/07/03 05:17:38;;;;;;;9.73;2.00;;;;;;;;;;5091232;28;20044;-78
2023/07/03 05:20:14;;;;;;;7.38;1.70;;;;;;;;;;5090954;28;20032;-77
2023/07/03 05:22:41;;;;;;;9.00;1.90;;;;;;;;;;5090026;28;20042;-78
2023/07/03 05:25:09;;;;;;;7.95;1.90;;;;;;;;;;5090934;28;20393;-76
2023/07/03 05:27:35;;;;;;;7.28;2.05;;;;;;;;;;5090180;28;20156;-75
2023/07/03 05:30:02;;;;;;;10.35;2.08;;;;;;;;;;5092135;28;20036;-74
2023/07/03 05:32:28;;;;;;;10.38;2.00;;;;;;;;;;5091233;28;20065;-76
2023/07/03 05:34:55;;;;;;;9.48;1.95;;;;;;;;;;5090735;28;20040;-74
2023/07/03 05:37:21;;;;;;;7.38;1.88;;;;;;;;;;5073392;28;20504;-75
2023/07/03 05:39:49;;;;;;;10.40;2.08;;;;;;;;;;5077259;28;20075;-73
2023/07/03 05:42:16;;;;;;;9.75;1.67;;;;;;;;;;5094427;28;20040;-78
2023/07/03 05:44:43;;;;;;;8.18;1.83;;;;;;;;;;5094088;28;20485;-79
2023/07/03 05:47:09;;;;;;;18.17;2.20;;;;;;;;;;5094388;28;20032;-77
2023/07/03 05:49:35;;;;;;;13.25;2.15;;;;;;;;;;5094865;28;20125;-75
2023/07/03 05:52:01;;;;;;;7.38;2.00;;;;;;;;;;5094241;28;20047;-76
2023/07/03 05:54:27;;;;;;;9.50;1.77;;;;;;;;;;5093599;28;20115;-77
2023/07/03 05:57:04;;;;;;;9.18;2.13;;;;;;;;;;5077158;28;20496;-76
2023/07/03 05:59:30;;;;;;;6.95;1.80;;;;;;;;;;5076793;28;20070;-75
2023/07/03 06:01:57;;;;;;;10.55;1.88;;;;;;;;;;5077413;28;20046;-77
2023/07/03 06:04:23;;;;;;;8.68;1.60;;;;;;;;;;5094403;28;20557;-75
2023/07/03 06:06:50;;;;;;;9.20;2.10;;;;;;;;;;5093980;28;20040;-73
2023/07/03 06:09:16;;;;;;;7.45;1.85;;;;;;;;;;5093811;28;20087;-76
2023/07/03 06:11:42;;;;;;;12.20;1.95;;;;;;;;;;5079841;28;20044;-75
2023/07/03 06:14:16;;;;;;;10.05;2.40;;;;;;;;;;5094068;28;20493;-76
2023/07/03 06:16:46;;;;;;;9.98;1.73;;;;;;;;;;5093453;28;20048;-75
2023/07/03 06:19:13;;;;;;;10.85;2.15;;;;;;;;;;5093585;28;20036;-75
2023/07/03 06:21:39;;;;;;;9.35;1.83;;;;;;;;;;5094370;28;20039;-75
2023/07/03 06:24:06;;;;;;;8.25;1.80;;;;;;;;;;5093831;28;20139;-74
2023/07/03 06:26:33;;;;;;;13.43;1.85;;;;;;;;;;5093242;28;20047;-74
2023/07/03 06:28:59;;;;;;;9.23;1.80;;;;;;;;;;5076681;28;20463;-73
2023/07/03 06:31:26;;;;;;;10.07;1.80;;;;;;;;;;5093627;28;20086;-76
2023/07/03 06:33:52;;;;;;;14.13;2.30;;;;;;;;;;5093507;28;20048;-76
2023/07/03 06:36:21;;;;;;;8.48;2.00;;;;;;;;;;5093225;28;20127;-75
2023/07/03 06:38:58;;;;;;;9.88;1.80;;;;;;;;;;5093134;28;20044;-74
2023/07/03 06:41:24;;;;;;;4.85;1.48;;;;;;;;;;5063598;28;20032;-77
2023/07/03 06:43:51;;;;;;;6.45;1.60;;;;;;;;;;5075911;28;20044;-76
2023/07/03 06:46:17;;;;;;;5.32;1.55;;;;;;;;;;5093299;28;20039;-73
2023/07/03 06:48:43;;;;;;;7.13;2.03;;;;;;;;;;5075739;28;20039;-75
2023/07/03 06:51:11;;;;;;;5.75;1.45;;;;;;;;;;5092269;28;20139;-76
2023/07/03 06:53:37;;;;;;;12.20;2.00;;;;;;;;;;5092616;28;20051;-73
2023/07/03 06:56:03;;;;;;;5.05;1.58;;;;;;;;;;5093204;28;20471;-72
2023/07/03 06:58:30;;;;;;;8.30;1.70;;;;;;;;;;5092738;28;20091;-73
2023/07/03 07:00:57;;;;;;;7.28;1.52;;;;;;;;;;5075975;28;20098;-74
2023/07/03 07:03:23;;;;;;;8.02;1.65;;;;;;;;;;5092919;28;20036;-74
2023/07/03 07:05:50;;;;;;;6.18;1.30;;;;;;;;;;5093902;28;20081;-75
2023/07/03 07:08:18;;;;;;;6.85;1.52;;;;;;;;;;5075675;28;20036;-72
2023/07/03 07:10:45;;;;;;;7.22;1.52;;;;;;;;;;5092593;28;20123;-74
2023/07/03 07:13:11;;;;;;;5.70;1.60;;;;;;;;;;5092793;28;20040;-74
2023/07/03 07:15:38;;;;;;;6.00;1.35;;;;;;;;;;5092053;28;20040;-74
2023/07/03 07:18:05;;;;;;;8.75;1.60;;;;;;;;;;5092415;28;20089;-74
2023/07/03 07:20:38;;;;;;;3.85;1.20;;;;;;;;;;5093307;28;20161;-74
2023/07/03 07:23:04;;;;;;;4.13;1.10;;;;;;;;;;5093672;28;20439;-72
2023/07/03 07:25:30;;;;;;;6.53;1.40;;;;;;;;;;5092303;28;20089;-74
2023/07/03 07:27:56;;;;;;;8.18;1.63;;;;;;;;;;5091975;28;20050;-75
2023/07/03 07:30:23;;;;;;;6.55;1.77;;;;;;;;;;5093199;28;20118;-75
2023/07/03 07:32:52;;;;;;;6.82;1.40;;;;;;;;;;5091923;28;20044;-74
2023/07/03 07:35:18;;;;;;;8.02;1.67;;;;;;;;;;5092456;28;20531;-76
2023/07/03 07:37:44;;;;;;;9.05;1.50;;;;;;;;;;5091524;28;20036;-76
2023/07/03 07:40:11;;;;;;;6.38;1.33;;;;;;;;;;5075095;28;20086;-74
2023/07/03 07:42:38;;;;;;;6.90;1.65;;;;;;;;;;5092805;28;20115;-74
2023/07/03 07:45:05;;;;;;;6.25;1.33;;;;;;;;;;5091801;28;20044;-76
2023/07/03 07:47:32;;;;;;;5.53;1.20;;;;;;;;;;5091844;28;20039;-74
2023/07/03 07:49:58;;;;;;;8.20;1.55;;;;;;;;;;5091339;28;20044;-73
2023/07/03 07:52:24;;;;;;;8.63;1.48;;;;;;;;;;5058804;28;20496;-74
2023/07/03 07:54:55;;;;;;;4.55;1.00;;;;;;;;;;5074335;28;20043;-76
2023/07/03 07:57:21;;;;;;;4.72;1.40;;;;;;;;;;5091422;28;20186;-73
2023/07/03 07:59:47;;;;;;;6.40;1.10;;;;;;;;;;5074268;28;20079;-73
2023/07/03 08:02:13;;;;;;;7.55;1.30;;;;;;;;;;5091923;28;20442;-74
2023/07/03 08:04:39;;;;;;;8.10;1.13;;;;;;;;;;5092607;28;20050;-75
2023/07/03 08:07:05;;;;;;;6.18;1.70;;;;;;;;;;5074821;28;20042;-76
2023/07/03 08:09:31;;;;;;;5.38;1.30;;;;;;;;;;5091441;28;20044;-75
2023/07/03 08:11:57;;;;;;;7.38;1.33;;;;;;;;;;5074466;28;20043;-74
2023/07/03 08:14:23;;;;;;;5.38;1.25;;;;;;;;;;5091558;28;20040;-75
2023/07/03 08:16:49;;;;;;;6.40;1.20;;;;;;;;;;5090972;28;20047;-73
2023/07/03 08:19:15;;;;;;;6.85;1.35;;;;;;;;;;5092868;28;20040;-76
2023/07/03 08:21:41;;;;;;;5.97;1.23;;;;;;;;;;5091047;28;20071;-75
2023/07/03 08:24:08;;;;;;;6.15;1.30;;;;;;;;;;5091698;28;20044;-74
2023/07/03 08:26:34;;;;;;;5.60;1.15;;;;;;;;;;5091373;28;20089;-73
2023/07/03 08:29:00;;;;;;;8.18;1.40;;;;;;;;;;5090982;28;20398;-74
2023/07/03 08:31:26;;;;;;;6.15;1.40;;;;;;;;;;5091203;28;20051;-76
2023/07/03 08:33:53;;;;;;;6.82;1.30;;;;;;;;;;5090746;28;20044;-75
2023/07/03 08:36:19;;;;;;;6.53;1.20;;;;;;;;;;5091240;28;20040;-73
2023/07/03 08:38:45;;;;;;;7.38;1.30;;;;;;;;;;5092043;28;20039;-73
2023/07/03 08:41:13;;;;;;;5.95;1.20;;;;;;;;;;5090792;28;20032;-72
2023/07/03 08:43:45;;;;;;;8.25;1.50;;;;;;;;;;5091068;28;20072;-73
2023/07/03 08:46:14;;;;;;;5.72;1.35;;;;;;;;;;5092297;28;20107;-73
2023/07/03 08:48:41;;;;;;;11.38;1.55;;;;;;;;;;5074308;28;20047;-73
2023/07/03 08:51:12;;;;;;;5.82;1.30;;;;;;;;;;5073752;28;20388;-72
2023/07/03 08:53:40;;;;;;;7.30;1.52;;;;;;;;;;5091485;28;20047;-73
2023/07/03 08:56:09;;;;;;;7.10;1.25;;;;;;;;;;5091543;28;20500;-75
2023/07/03 08:58:35;;;;;;;9.38;1.30;;;;;;;;;;5090811;28;20044;-75
2023/07/03 09:01:03;;;;;;;8.13;1.30;;;;;;;;;;5091797;28;20062;-73
2023/07/03 09:03:52;;;;;;;10.48;1.42;;;;;;;;;;5092321;28;20036;-73
2023/07/03 09:06:28;;;;;;;7.57;1.35;;;;;;;;;;5053468;28;20056;-73
2023/07/03 09:08:57;;;;;;;4.03;1.30;;;;;;;;;;5091811;28;20075;-73
2023/07/03 09:11:25;;;;;;;5.68;1.20;;;;;;;;;;5090665;28;20040;-73
2023/07/03 09:13:53;;;;;;;11.55;1.45;;;;;;;;;;5075972;28;20128;-73
2023/07/03 09:16:23;;;;;;;6.47;1.23;;;;;;;;;;5094938;28;20051;-73
2023/07/03 09:18:49;;;;;;;5.43;1.20;;;;;;;;;;5094501;28;20093;-73
2023/07/03 09:21:15;;;;;;;7.28;1.42;;;;;;;;;;5094717;28;20039;-73
2023/07/03 09:23:58;;;;;;;6.05;1.10;;;;;;;;;;5077998;28;20044;-75
2023/07/03 09:26:27;;;;;;;4.95;1.20;;;;;;;;;;5077815;28;20044;-73
2023/07/03 09:28:58;;;;;;;4.65;1.10;;;;;;;;;;5077629;28;20366;-73
2023/07/03 09:31:25;;;;;;;7.35;1.17;;;;;;;;;;5095740;28;20047;-75
2023/07/03 09:33:51;;;;;;;6.90;1.35;;;;;;;;;;5094126;28;20048;-72
2023/07/03 09:36:30;;;;;;;5.80;1.10;;;;;;;;;;5094284;28;20047;-73
2023/07/03 09:38:57;;;;;;;6.53;1.20;;;;;;;;;;5094082;28;20093;-72
2023/07/03 09:41:23;;;;;;;5.80;1.23;;;;;;;;;;5095112;28;20036;-73
2023/07/03 09:43:50;;;;;;;3.30;1.15;;;;;;;;;;5094678;28;20185;-72
2023/07/03 09:46:17;;;;;;;6.65;1.30;;;;;;;;;;5095355;28;20149;-73
2023/07/03 09:48:43;;;;;;;5.38;1.08;;;;;;;;;;5095021;28;20044;-73
2023/07/03 09:51:21;;;;;;;5.78;1.20;;;;;;;;;;5093883;28;20492;-72
2023/07/03 09:53:48;;;;;;;6.38;1.30;;;;;;;;;;5094856;28;20504;-74
2023/07/03 09:56:15;;;;;;;6.32;0.95;;;;;;;;;;5095291;28;20484;-75
2023/07/03 09:58:47;;;;;;;5.28;1.20;;;;;;;;;;5094937;28;20101;-73
2023/07/03 10:01:20;;;;;;;4.93;1.25;;;;;;;;;;5093437;28;20047;-75
2023/07/03 10:03:46;;;;;;;7.13;1.23;;;;;;;;;;5094114;28;20123;-74
2023/07/03 10:06:14;;;;;;;4.53;1.23;;;;;;;;;;5076807;28;20047;-73
2023/07/03 10:09:00;;;;;;;5.70;1.10;;;;;;;;;;5095167;28;20076;-73
2023/07/03 10:11:32;;;;;;;5.25;0.90;;;;;;;;;;5093480;28;20114;-74
2023/07/03 10:13:58;;;;;;;7.72;1.30;;;;;;;;;;5093660;28;20378;-75
2023/07/03 10:16:25;;;;;;;7.72;1.35;;;;;;;;;;5060245;28;20072;-74
2023/07/03 10:18:55;;;;;;;5.82;1.10;;;;;;;;;;5093534;28;20036;-74
2023/07/03 10:21:22;;;;;;;6.20;1.20;;;;;;;;;;5093668;28;20484;-73
2023/07/03 10:23:48;;;;;;;5.15;1.13;;;;;;;;;;5093186;28;20040;-75
2023/07/03 10:26:20;;;;;;;5.53;1.48;;;;;;;;;;5092287;28;20043;-75
2023/07/03 10:28:46;;;;;;;5.53;1.13;;;;;;;;;;5093718;28;20404;-75
2023/07/03 10:31:18;;;;;;;6.13;1.17;;;;;;;;;;5093378;28;20489;-74
2023/07/03 10:33:46;;;;;;;5.75;1.25;;;;;;;;;;5094652;28;20130;-76
2023/07/03 10:36:16;;;;;;;7.68;1.23;;;;;;;;;;5094023;28;20543;-73
2023/07/03 10:39:01;;;;;;;5.72;1.23;;;;;;;;;;5093356;28;20036;-74
2023/07/03 10:41:45;;;;;;;6.85;1.10;;;;;;;;;;5080735;28;20032;-73
2023/07/03 10:44:24;;;;;;;3.45;0.90;;;;;;;;;;5092788;28;20124;-74
2023/07/03 10:46:57;;;;;;;7.43;1.10;;;;;;;;;;5093095;28;20035;-75
2023/07/03 10:49:31;;;;;;;7.50;1.10;;;;;;;;;;5076143;28;20032;-73
2023/07/03 10:52:06;;;;;;;4.28;1.00;;;;;;;;;;5092965;28;20079;-74
2023/07/03 10:54:32;;;;;;;;;;;;;;;;;;5076497;28;20040;-74
2023/07/03 10:56:58;;;;;;;;;;;;;;;;;;5092883;28;19920;-72
2023/07/03 10:59:27;;;;;;;5.88;1.00;;;;;;;;;;5094231;28;19927;-75
2023/07/03 11:02:02;;;;;;;7.13;1.55;;;;;;;;;;5093153;28;20477;-73
2023/07/03 11:04:40;;;;;;;7.15;1.20;;;;;;;;;;5092828;28;20071;-73
2023/07/03 11:07:11;;;;;;;9.43;1.50;;;;;;;;;;5091680;28;20092;-74
2023/07/03 11:09:49;;;;;;;10.02;1.48;;;;;;;;;;5091896;28;20048;-75
2023/07/03 11:12:24;;;;;;;4.18;1.00;;;;;;;;;;5091675;28;20122;-74
2023/07/03 11:14:53;;;;;;;9.55;1.40;;;;;;;;;;5092923;28;20497;-73
2023/07/03 11:17:48;;;;;;;8.10;1.17;;;;;;;;;;5075191;28;20047;-74
2023/07/03 11:20:14;;;;;;;6.20;1.57;;;;;;;;;;5082004;28;20421;-74
2023/07/03 11:22:51;;;;;;;8.95;1.20;;;;;;;;;;5093458;28;20401;-70
2023/07/03 11:25:22;;;;;;;8.05;1.30;;;;;;;;;;5092905;28;20036;-71
2023/07/03 11:28:04;;;;;;;3.85;1.35;;;;;;;;;;5092394;28;20047;-72
2023/07/03 11:30:31;;;;;;;8.52;1.15;;;;;;;;;;5075606;28;20400;-70
2023/07/03 11:32:59;;;;;;;6.13;1.48;;;;;;;;;;5092449;28;20040;-74
2023/07/03 11:35:26;;;;;;;3.42;0.98;;;;;;;;;;5089556;28;20039;-73
2023/07/03 11:38:02;;;;;;;6.78;1.10;;;;;;;;;;5092130;28;20040;-74
2023/07/03 11:40:34;;;;;;;4.45;1.25;;;;;;;;;;5090881;28;20036;-75
2023/07/03 11:43:19;;;;;;;4.25;1.10;;;;;;;;;;5091818;28;20044;-73
2023/07/03 11:45:57;;;;;;;27.40;2.25;;;;;;;;;;5093136;28;20063;-74
2023/07/03 11:48:38;;;;;;;15.50;1.52;;;;;;;;;;5090726;28;20111;-75
2023/07/03 11:51:06;;;;;;;5.63;1.08;;;;;;;;;;5092387;28;20109;-74
2023/07/03 11:53:35;;;;;;;6.25;1.17;;;;;;;;;;5091591;28;20422;-73
2023/07/03 11:56:02;;;;;;;9.32;1.20;;;;;;;;;;5091315;28;20036;-73
2023/07/03 11:58:30;;;;;;;7.95;1.20;;;;;;;;;;5090705;28;20097;-72
2023/07/03 12:01:19;;;;;;;4.75;1.42;;;;;;;;;;5090728;28;20047;-72
2023/07/03 12:03:59;;;;;;;12.20;1.40;;;;;;;;;;5071837;28;20051;-73
2023/07/03 12:06:41;;;;;;;5.57;1.30;;;;;;;;;;5089406;28;20128;-74
2023/07/03 12:09:19;;;;;;;8.70;1.10;;;;;;;;;;5088306;28;20035;-72
2023/07/03 12:12:00;;;;;;;8.43;1.67;;;;;;;;;;5085357;28;20529;-72
2023/07/03 12:17:17;;;;;;;6.50;1.20;;;;;;;;;;5087176;28;20043;-72
2023/07/03 12:19:43;;;;;;;9.77;1.30;;;;;;;;;;5091504;28;20119;-73
2023/07/03 12:22:13;;;;;;;3.90;1.00;;;;;;;;;;5091904;28;20048;-75
2023/07/03 12:24:39;;;;;;;8.35;1.25;;;;;;;;;;5090990;28;20059;-72
2023/07/03 12:27:07;;;;;;;8.20;1.30;;;;;;;;;;5092616;28;20490;-73
2023/07/03 12:29:34;;;;;;;5.65;0.98;;;;;;;;;;5090864;28;20079;-73
2023/07/03 12:32:06;;;;;;;5.47;2.05;;;;;;;;;;5091711;28;20130;-73
2023/07/03 12:34:33;;;;;;;11.82;1.48;;;;;;;;;;5077506;28;20044;-73
2023/07/03 12:37:02;;;;;;;6.47;1.30;;;;;;;;;;5090622;28;20508;-73
2023/07/03 12:39:28;;;;;;;4.97;1.13;;;;;;;;;;5087536;28;20033;-73
2023/07/03 12:41:54;;;;;;;5.78;1.17;;;;;;;;;;5082094;28;20046;-74
2023/07/03 12:44:23;;;;;;;12.88;1.73;;;;;;;;;;5074031;28;20493;-73
2023/07/03 12:46:49;;;;;;;6.82;1.20;;;;;;;;;;5074194;28;20507;-73
2023/07/03 12:49:17;;;;;;;8.35;1.38;;;;;;;;;;5090890;28;20044;-75
2023/07/03 12:51:49;;;;;;;5.85;1.02;;;;;;;;;;5090436;28;20044;-73
2023/07/03 12:54:15;;;;;;;6.78;1.10;;;;;;;;;;5091659;28;20047;-73
2023/07/03 12:56:43;;;;;;;4.95;1.10;;;;;;;;;;5091218;28;20497;-72
2023/07/03 12:59:11;;;;;;;9.93;1.35;;;;;;;;;;5090802;28;20055;-72
2023/07/03 13:01:38;;;;;;;4.95;1.08;;;;;;;;;;5090646;28;20499;-72
2023/07/03 13:04:05;;;;;;;4.75;1.00;;;;;;;;;;5078729;28;20503;-73
2023/07/03 13:06:32;;;;;;;9.38;1.35;;;;;;;;;;5089536;28;20042;-72
2023/07/03 13:08:58;;;;;;;3.60;1.10;;;;;;;;;;5073737;28;20048;-72
2023/07/03 13:11:31;;;;;;;6.55;1.20;;;;;;;;;;5090044;28;20044;-71
2023/07/03 13:14:20;;;;;;;5.60;1.50;;;;;;;;;;5090080;28;20114;-70
2023/07/03 13:16:47;;;;;;;12.95;1.48;;;;;;;;;;5085958;28;20070;-72
2023/07/03 13:19:30;;;;;;;4.32;0.93;;;;;;;;;;5073968;28;20115;-72
2023/07/03 13:21:58;;;;;;;5.15;1.30;;;;;;;;;;5091658;28;20070;-72
2023/07/03 13:24:25;;;;;;;4.70;1.17;;;;;;;;;;5090372;28;20492;-71
2023/07/03 13:26:51;;;;;;;5.55;1.08;;;;;;;;;;5090386;28;20079;-71
2023/07/03 13:29:31;;;;;;;7.80;0.90;;;;;;;;;;5090058;28;20040;-70
2023/07/03 13:32:23;;;;;;;18.38;1.75;;;;;;;;;;5090765;28;20100;-72
2023/07/03 13:35:05;;;;;;;7.97;1.30;;;;;;;;;;5078305;28;20063;-72
2023/07/03 13:37:33;;;;;;;3.80;1.15;;;;;;;;;;5089862;28;20058;-73
2023/07/03 13:39:59;;;;;;;6.47;1.48;;;;;;;;;;5081223;28;20032;-70
2023/07/03 13:42:26;;;;;;;7.88;1.40;;;;;;;;;;5091384;28;20040;-72
2023/07/03 13:44:52;;;;;;;7.20;1.48;;;;;;;;;;5092062;28;20078;-72
2023/07/03 13:47:18;;;;;;;6.80;1.05;;;;;;;;;;5091399;28;20044;-71
2023/07/03 13:49:45;;;;;;;6.22;1.33;;;;;;;;;;5090740;28;20044;-72
2023/07/03 13:52:11;;;;;;;7.95;1.55;;;;;;;;;;5089856;28;20119;-72
2023/07/03 13:54:37;;;;;;;5.03;0.93;;;;;;;;;;5089924;28;20036;-71
2023/07/03 13:57:03;;;;;;;9.20;1.20;;;;;;;;;;5091309;28;20045;-74
2023/07/03 13:59:30;;;;;;;6.47;1.25;;;;;;;;;;5058096;28;20056;-74
2023/07/03 14:01:56;;;;;;;9.88;1.10;;;;;;;;;;5094103;28;20062;-73
2023/07/03 14:04:22;;;;;;;3.08;0.90;;;;;;;;;;5093583;28;20036;-73
2023/07/03 14:06:48;;;;;;;4.70;0.80;;;;;;;;;;5093586;28;20043;-74
2023/07/03 14:09:14;;;;;;;4.47;0.90;;;;;;;;;;5094000;28;20040;-73
2023/07/03 14:11:42;;;;;;;4.28;0.77;;;;;;;;;;5093403;28;20075;-73
2023/07/03 14:14:09;;;;;;;2.53;0.90;;;;;;;;;;5095107;28;20040;-75
2023/07/03 14:16:35;;;;;;;5.70;1.10;;;;;;;;;;5093679;28;20436;-74
2023/07/03 14:19:02;;;;;;;4.85;0.98;;;;;;;;;;5094703;28;20074;-75
2023/07/03 14:21:28;;;;;;;6.32;1.10;;;;;;;;;;5093300;28;20080;-74
2023/07/03 14:23:54;;;;;;;4.05;0.82;;;;;;;;;;5095071;28;20032;-74
2023/07/03 14:26:22;;;;;;;6.55;1.08;;;;;;;;;;5093336;28;20036;-75
2023/07/03 14:28:48;;;;;;;5.75;1.10;;;;;;;;;;5093120;28;20048;-75
2023/07/03 14:31:16;;;;;;;5.88;1.17;;;;;;;;;;5093165;28;20123;-75
2023/07/03 14:33:42;;;;;;;6.72;1.60;;;;;;;;;;5092854;28;20063;-75
2023/07/03 14:36:08;;;;;;;5.53;1.30;;;;;;;;;;5076599;28;20506;-74
2023/07/03 14:38:34;;;;;;;8.30;1.42;;;;;;;;;;5092943;28;20105;-74
2023/07/03 14:41:00;;;;;;;8.52;1.90;;;;;;;;;;5092191;28;20040;-74
2023/07/03 14:43:27;;;;;;;8.95;2.00;;;;;;;;;;5092872;28;20488;-75
2023/07/03 14:45:53;;;;;;;8.55;1.50;;;;;;;;;;5093419;28;20519;-74
2023/07/03 14:48:19;;;;;;;15.38;2.58;;;;;;;;;;5093191;28;20074;-74
2023/07/03 14:50:47;;;;;;;11.23;2.05;;;;;;;;;;5093995;28;20040;-76